Flight Track Log - Related Links

Times and Time Zones

All times are in EDT time to prevent confusion due to time zone crossing. See the N900EL flight status page for this flight to view local times or setup timezone preferences in your user account.

Time Position Orientation Groundspeed Altitude Reporting Facility
EDT Latitude Longitude Course Direction KTS MPH feet Rate Location/Type
Sat 10:55:33 PM 31.8006 -106.3108 90° East 195 224 6,300  Level Albuquerque Center
Sat 10:56:10 PM 31.7925 -106.2789 107° East 203 234 7,400 2,265 Climbing Albuquerque Center
Sat 10:57:11 PM 31.7492 -106.2294 136° Southeast 218 251 10,000 2,607 Climbing Albuquerque Center
Sat 10:58:12 PM 31.6972 -106.1775 140° Southeast 242 278 12,700 2,410 Climbing Albuquerque Center
Sat 10:59:13 PM 31.6394 -106.1167 138° Southeast 280 322 14,900 2,066 Climbing Albuquerque Center
Sat 11:00:14 PM 31.5800 -106.0492 136° Southeast 300 345 16,900 1,967 Climbing Albuquerque Center
Sat 11:01:15 PM 31.5036 -105.9600 135° Southeast 325 374 18,900 1,918 Climbing Albuquerque Center
Sat 11:02:16 PM 31.4325 -105.8853 138° Southeast 341 392 20,800 1,672 Climbing Albuquerque Center
Sat 11:03:17 PM 31.3614 -105.8067 137° Southeast 351 404 22,300 1,587 Climbing Albuquerque Center
Sat 11:04:17 PM 31.2869 -105.7231 136° Southeast 362 417 24,000 1,488 Climbing Albuquerque Center
Sat 11:05:18 PM 31.2153 -105.6419 136° Southeast 369 425 25,300 1,180 Climbing Albuquerque Center
Sat 11:06:19 PM 31.1411 -105.5586 136° Southeast 369 425 26,400 984 Climbing Albuquerque Center
Sat 11:07:20 PM 31.0639 -105.4736 137° Southeast 380 437 27,300 836 Climbing Albuquerque Center
Sat 11:08:21 PM 30.9775 -105.3989 143° Southeast 391 450 28,100 787 Climbing Albuquerque Center
Sat 11:09:22 PM 30.8642 -105.3908 177° South 412 474 28,900 787 Climbing Albuquerque Center
Sat 11:10:23 PM 30.7475 -105.3947 182° South 421 484 29,700 885 Climbing Albuquerque Center
Sat 11:11:24 PM 30.6067 -105.3969 181° South 424 488 30,700 787 Climbing Albuquerque Center
Sat 11:12:25 PM 30.4878 -105.4000 181° South 428 493 31,300 590 Climbing Albuquerque Center
Sat 11:13:26 PM 30.3681 -105.4019 181° South 431 496 31,900 590 Climbing Albuquerque Center
Sat 11:14:27 PM 30.2461 -105.4047 181° South 435 501 32,500 689 Climbing Albuquerque Center
Sat 11:15:28 PM 30.1239 -105.4089 182° South 439 505 33,300 689 Climbing Albuquerque Center
Sat 11:16:29 PM 30.0031 -105.4097 180° South 436 502 33,900 738 Climbing Albuquerque Center
Sat 11:17:30 PM 29.8800 -105.4128 181° South 440 506 34,800 984 Climbing Albuquerque Center
Sat 11:18:31 PM 29.7603 -105.4172 182° South 435 501 35,900 934 Climbing Albuquerque Center
Sat 11:19:32 PM 29.6414 -105.4206 181° South 428 493 36,700 787 Climbing Albuquerque Center
Sat 11:20:33 PM 29.5217 -105.4211 180° South 429 494 37,500 984 Climbing Albuquerque Center
Sat 11:21:34 PM 29.4025 -105.4208 180° South 428 493 38,700 1,377 Climbing Albuquerque Center
Sat 11:22:35 PM 29.2628 -105.4247 181° South 422 486 40,300 1,131 Climbing Albuquerque Center
Sat 11:23:36 PM 29.1539 -105.3889 164° South 419 482 41,000 344 Climbing Albuquerque Center
Sat 11:24:37 PM 29.0431 -105.3381 158° South 422 486 41,000  Level Albuquerque Center
Sat 11:25:38 PM 28.9311 -105.2767 154° Southeast 438 504 41,000  Level Albuquerque Center
Sat 11:26:39 PM 28.8164 -105.2161 155° Southeast 449 517 41,000  Level Albuquerque Center
Sat 11:28:00 PM 28.6898 -105.1435 153° Southeast  Level Estimated
Sat 11:35:00 PM 28.0330 -104.7696 153° Southeast  Level Estimated
Sat 11:36:00 PM 27.9391 -104.7166 153° Southeast  Level Estimated
Sat 11:37:00 PM 27.8451 -104.6637 154° Southeast  Level Estimated
Sat 11:38:00 PM 27.7512 -104.6108 154° Southeast  Level Estimated
Sat 11:39:00 PM 27.6572 -104.5580 154° Southeast  Level Estimated
Sat 11:40:00 PM 27.5632 -104.5054 154° Southeast  Level Estimated
Sat 11:41:00 PM 27.4692 -104.4528 154° Southeast  Level Estimated
Sat 11:42:00 PM 27.3751 -104.4003 154° Southeast  Level Estimated
Sat 11:43:00 PM 27.2810 -104.3479 154° Southeast  Level Estimated
Sat 11:44:00 PM 27.1870 -104.2956 154° Southeast  Level Estimated
Sat 11:45:00 PM 27.0929 -104.2434 154° Southeast  Level Estimated
Sat 11:46:00 PM 26.9988 -104.1912 154° Southeast  Level Estimated
Sat 11:47:00 PM 26.9046 -104.1392 154° Southeast  Level Estimated
Sat 11:48:00 PM 26.8104 -104.0872 154° Southeast  Level Estimated
Sat 11:49:00 PM 26.7163 -104.0354 154° Southeast  Level Estimated
Sat 11:50:00 PM 26.6221 -103.9836 154° Southeast  Level Estimated
Sat 11:51:00 PM 26.5279 -103.9319 154° Southeast  Level Estimated
Sat 11:52:00 PM 26.4336 -103.8802 154° Southeast  Level Estimated
Sat 11:53:00 PM 26.3394 -103.8287 154° Southeast  Level Estimated
Sat 11:54:00 PM 26.2451 -103.7773 154° Southeast  Level Estimated
Sat 11:55:00 PM 26.1508 -103.7259 154° Southeast  Level Estimated
Sat 11:56:00 PM 26.0565 -103.6746 154° Southeast  Level Estimated
Sat 11:57:00 PM 25.9622 -103.6234 154° Southeast  Level Estimated
Sat 11:58:00 PM 25.8679 -103.5723 154° Southeast  Level Estimated
Sat 11:59:00 PM 25.7735 -103.5213 154° Southeast  Level Estimated
Sun 12:00:00 AM 25.6791 -103.4703 154° Southeast  Level Estimated
Sun 12:01:00 AM 25.5847 -103.4194 154° Southeast  Level Estimated
Sun 12:02:00 AM 25.5683 -103.4106 154° Southeast  Level Estimated
Sun 12:03:00 AM 25.5683 -103.4106 234° Southwest  Level Estimated
Sun 12:04:00 AM 25.5683 -103.4106 234° Southwest  Level Estimated
Sun 12:05:00 AM 25.5683 -103.4106 234° Southwest  Level Estimated
Sun 12:06:00 AM 25.5683 -103.4106 234° Southwest  Level Estimated
Sun 12:07:00 AM 25.5683 -103.4106 234° Southwest  Level Estimated
Sun 12:08:00 AM 25.5683 -103.4106 234° Southwest  Level Estimated
Sun 12:09:00 AM 25.5683 -103.4106 234° Southwest  Level Estimated
Sun 12:10:00 AM 25.5683 -103.4106 234° Southwest  Level Estimated
Sun 12:11:00 AM 25.5683 -103.4106 234° Southwest  Level Estimated
Sun 12:12:00 AM 25.5683 -103.4106 234° Southwest  Level Estimated
Sun 12:13:00 AM 25.5683 -103.4106 234° Southwest  Level Estimated
Sun 12:14:00 AM 25.5683 -103.4106 234° Southwest  Level Estimated
Sun 12:15:00 AM 25.5683 -103.4106 234° Southwest  Level Estimated
Sun 12:16:00 AM 25.5683 -103.4106 234° Southwest  Level Estimated
Sun 12:17:00 AM 25.5683 -103.4106 234° Southwest  Level Estimated
Sun 12:18:00 AM 25.5683 -103.4106 234° Southwest  Level Estimated

Login

Don't have an account? Register now (free) for customized features, flight alerts, and more!